createdAt,value
2018-10-16T00:00:20.481Z,8.20
2018-10-16T00:02:49.099Z,9.20
2018-10-16T00:05:18.606Z,9.67
2018-10-16T00:07:47.093Z,8.87
2018-10-16T00:10:19.706Z,8.90
2018-10-16T00:12:48.258Z,9.83
2018-10-16T00:15:16.706Z,8.93
2018-10-16T00:17:45.217Z,8.90
2018-10-16T00:20:13.634Z,10.03
2018-10-16T00:22:42.076Z,8.87
2018-10-16T00:25:15.569Z,9.67
2018-10-16T00:27:44.026Z,9.20
2018-10-16T00:30:12.517Z,9.60
2018-10-16T00:32:41.912Z,10.30
2018-10-16T00:35:10.802Z,9.73
2018-10-16T00:37:39.321Z,9.87
2018-10-16T00:40:08.985Z,9.90
2018-10-16T00:42:37.445Z,9.50
2018-10-16T00:45:07.477Z,9.93
2018-10-16T00:47:35.869Z,10.37
2018-10-16T00:50:04.462Z,10.23
2018-10-16T00:52:32.945Z,9.40
2018-10-16T00:55:01.426Z,10.83
2018-10-16T00:57:29.804Z,10.43
2018-10-16T00:59:58.239Z,9.80
2018-10-16T01:02:26.665Z,10.80
2018-10-16T01:04:55.115Z,10.70
2018-10-16T01:07:23.603Z,10.60
2018-10-16T01:09:52.037Z,10.73
2018-10-16T01:12:23.006Z,10.07
2018-10-16T01:14:51.505Z,9.93
2018-10-16T01:17:21.806Z,9.80
2018-10-16T01:19:50.856Z,10.20
2018-10-16T01:22:19.312Z,10.20
2018-10-16T01:24:47.725Z,9.90
2018-10-16T01:27:16.226Z,10.80
2018-10-16T01:29:44.660Z,10.07
2018-10-16T01:32:13.149Z,10.00
2018-10-16T01:34:41.585Z,10.87
2018-10-16T01:37:10.041Z,10.37
2018-10-16T01:39:38.496Z,10.93
2018-10-16T01:42:07.085Z,10.80
2018-10-16T01:44:35.848Z,11.37
2018-10-16T01:47:05.389Z,10.70
2018-10-16T01:49:35.136Z,10.93
2018-10-16T01:52:03.589Z,11.00
2018-10-16T01:54:33.920Z,11.50
2018-10-16T01:57:02.413Z,11.87
2018-10-16T01:59:30.829Z,10.90
2018-10-16T02:01:59.865Z,11.13
2018-10-16T02:04:29.568Z,10.93
2018-10-16T02:09:32.701Z,10.57
2018-10-16T02:12:01.178Z,11.10
2018-10-16T02:14:29.854Z,9.77
2018-10-16T02:16:58.383Z,10.50
2018-10-16T02:19:26.847Z,11.30
2018-10-16T02:21:55.305Z,10.00
2018-10-16T02:24:23.737Z,11.30
2018-10-16T02:26:52.240Z,10.47
2018-10-16T02:29:20.747Z,10.23
2018-10-16T02:31:49.247Z,11.23
2018-10-16T02:34:17.746Z,10.40
2018-10-16T02:36:46.201Z,11.00
2018-10-16T02:39:14.596Z,11.23
2018-10-16T02:41:43.052Z,10.30
2018-10-16T02:44:11.473Z,10.97
2018-10-16T02:46:39.965Z,11.03
2018-10-16T02:49:08.553Z,10.83
2018-10-16T02:51:37.052Z,11.40
2018-10-16T02:54:06.155Z,11.47
2018-10-16T02:56:34.613Z,10.27
2018-10-16T02:59:03.049Z,11.70
2018-10-16T03:01:31.476Z,11.50
2018-10-16T03:03:59.948Z,10.77
2018-10-16T03:06:28.402Z,10.80
2018-10-16T03:08:56.808Z,11.03
2018-10-16T03:11:25.273Z,11.03
2018-10-16T03:13:53.704Z,10.30
2018-10-16T03:16:22.154Z,11.30
2018-10-16T03:18:50.548Z,10.97
2018-10-16T03:21:19.028Z,10.70
2018-10-16T03:23:47.511Z,11.10
2018-10-16T03:26:15.989Z,10.87
2018-10-16T03:28:44.667Z,10.87
2018-10-16T03:31:13.064Z,10.20
2018-10-16T03:33:41.564Z,11.90
2018-10-16T03:36:10.001Z,11.33
2018-10-16T03:38:38.519Z,10.77
2018-10-16T03:41:06.947Z,11.30
2018-10-16T03:43:37.657Z,9.83
2018-10-16T03:46:06.265Z,11.83
2018-10-16T03:48:35.001Z,10.50
2018-10-16T03:51:03.590Z,10.47
2018-10-16T03:53:32.024Z,10.50
2018-10-16T03:56:00.457Z,12.03
2018-10-16T03:58:28.952Z,11.50
2018-10-16T04:00:57.369Z,10.50
2018-10-16T04:03:25.797Z,11.13
2018-10-16T04:05:54.302Z,10.97
2018-10-16T04:08:22.767Z,10.67
2018-10-16T04:10:51.245Z,10.70
2018-10-16T04:13:19.736Z,11.27
2018-10-16T04:15:48.177Z,11.33
2018-10-16T04:18:16.615Z,11.33
2018-10-16T04:20:45.040Z,11.33
2018-10-16T04:23:13.466Z,10.73
2018-10-16T04:25:41.888Z,10.27
2018-10-16T04:28:10.300Z,11.17
2018-10-16T04:30:38.765Z,11.07
2018-10-16T04:33:07.219Z,11.27
2018-10-16T04:35:35.672Z,12.10
2018-10-16T04:38:04.093Z,11.93
2018-10-16T04:40:32.504Z,11.93
2018-10-16T04:43:00.926Z,11.30
2018-10-16T04:45:29.427Z,11.60
2018-10-16T04:47:57.889Z,11.57
2018-10-16T04:50:26.347Z,10.93
2018-10-16T04:52:54.763Z,11.63
2018-10-16T04:55:23.217Z,10.57
2018-10-16T04:57:51.629Z,11.33
2018-10-16T05:00:20.070Z,10.77
2018-10-16T05:02:48.515Z,11.77
2018-10-16T05:05:21.061Z,10.80
2018-10-16T05:07:50.137Z,10.30
2018-10-16T05:10:18.732Z,12.53
2018-10-16T05:12:48.175Z,11.23
2018-10-16T05:15:29.119Z,12.43
2018-10-16T05:17:57.708Z,11.43
2018-10-16T05:20:26.206Z,11.70
2018-10-16T05:22:55.298Z,12.13
2018-10-16T05:25:24.247Z,11.93
2018-10-16T05:27:52.690Z,10.80
2018-10-16T05:30:21.131Z,11.20
2018-10-16T05:32:49.649Z,11.40
2018-10-16T05:35:18.074Z,11.90
2018-10-16T05:37:46.516Z,13.40
2018-10-16T05:40:14.939Z,13.60
2018-10-16T05:42:43.397Z,12.03
2018-10-16T05:45:13.268Z,12.40
2018-10-16T05:47:43.301Z,11.63
2018-10-16T05:50:12.047Z,13.10
2018-10-16T05:52:40.531Z,11.80
2018-10-16T05:55:09.417Z,11.13
2018-10-16T05:57:37.876Z,12.33
2018-10-16T06:00:18.057Z,11.63
2018-10-16T06:02:47.447Z,12.53
2018-10-16T06:05:15.865Z,12.20
2018-10-16T06:07:44.794Z,11.63
2018-10-16T06:10:13.590Z,12.70
2018-10-16T06:12:42.075Z,10.90
2018-10-16T06:15:11.260Z,10.97
2018-10-16T06:17:39.812Z,12.20
2018-10-16T06:20:10.725Z,11.10
2018-10-16T06:22:39.206Z,11.80
2018-10-16T06:25:08.697Z,11.70
2018-10-16T06:27:37.506Z,11.60
2018-10-16T06:30:06.190Z,11.37
2018-10-16T06:32:34.677Z,10.97
2018-10-16T06:35:03.237Z,11.50
2018-10-16T06:37:32.309Z,11.63
2018-10-16T06:40:00.808Z,11.50
2018-10-16T06:42:29.311Z,12.20
2018-10-16T06:44:57.709Z,11.60
2018-10-16T06:47:26.326Z,12.40
2018-10-16T06:49:54.711Z,12.03
2018-10-16T06:52:23.189Z,12.50
2018-10-16T06:54:51.687Z,12.60
2018-10-16T06:57:20.084Z,11.20
2018-10-16T06:59:48.587Z,12.20
2018-10-16T07:02:17.102Z,11.80
2018-10-16T07:04:45.559Z,11.73
2018-10-16T07:07:14.155Z,12.43
2018-10-16T07:09:42.625Z,12.67
2018-10-16T07:12:11.111Z,12.50
2018-10-16T07:14:39.713Z,13.57
2018-10-16T07:17:08.140Z,11.90
2018-10-16T07:19:36.688Z,14.33
2018-10-16T07:22:08.419Z,13.57
2018-10-16T07:24:36.885Z,13.03
2018-10-16T07:27:05.752Z,13.80
2018-10-16T07:29:34.259Z,15.17
2018-10-16T07:32:03.178Z,13.63
2018-10-16T07:34:31.561Z,13.70
2018-10-16T07:37:00.045Z,12.97
2018-10-16T07:39:28.505Z,14.10
2018-10-16T07:41:56.976Z,13.17
2018-10-16T07:44:25.441Z,13.00
2018-10-16T07:46:53.912Z,14.23
2018-10-16T07:49:22.386Z,13.70
2018-10-16T07:51:50.831Z,14.90
2018-10-16T07:54:19.312Z,13.37
2018-10-16T07:56:47.845Z,14.23
2018-10-16T07:59:16.377Z,13.90
2018-10-16T08:01:44.928Z,15.40
2018-10-16T08:04:13.377Z,15.03
2018-10-16T08:06:41.807Z,13.67
2018-10-16T08:09:15.095Z,14.83
2018-10-16T08:11:45.449Z,13.13
2018-10-16T08:14:14.780Z,14.00
2018-10-16T08:16:44.076Z,15.13
2018-10-16T08:19:12.637Z,14.00
2018-10-16T08:21:41.187Z,13.97
2018-10-16T08:24:09.973Z,14.00
2018-10-16T08:26:38.572Z,13.47
2018-10-16T08:29:07.960Z,14.83
2018-10-16T08:31:36.450Z,14.40
2018-10-16T08:34:05.439Z,13.30
2018-10-16T08:36:33.925Z,13.17
2018-10-16T08:39:25.633Z,13.30
2018-10-16T08:44:10.117Z,11.53
2018-10-16T08:46:49.757Z,11.10
2018-10-16T08:49:29.558Z,10.33
2018-10-16T08:51:59.207Z,11.60
2018-10-16T08:54:27.685Z,10.93
2018-10-16T08:56:56.121Z,11.10
2018-10-16T08:59:24.612Z,11.17
2018-10-16T09:01:53.044Z,12.03
2018-10-16T09:04:21.508Z,12.93
2018-10-16T09:06:50.099Z,11.70
2018-10-16T09:09:19.079Z,10.37
2018-10-16T09:11:48.803Z,10.70
2018-10-16T09:14:17.973Z,9.93
2018-10-16T09:16:46.454Z,10.07
2018-10-16T09:19:14.932Z,9.70
2018-10-16T09:21:43.425Z,9.87
2018-10-16T09:24:11.913Z,9.70
2018-10-16T09:26:40.340Z,9.17
2018-10-16T09:29:08.794Z,9.57
2018-10-16T09:31:37.219Z,9.53
2018-10-16T09:34:05.814Z,10.77
2018-10-16T09:36:34.275Z,10.00
2018-10-16T09:39:02.864Z,9.40
2018-10-16T09:41:31.327Z,9.90
2018-10-16T09:43:59.752Z,10.50
2018-10-16T09:46:28.812Z,8.60
2018-10-16T09:48:57.793Z,9.70
2018-10-16T09:51:26.293Z,9.13
2018-10-16T09:53:54.760Z,10.07
2018-10-16T09:56:23.221Z,9.20
2018-10-16T09:58:51.686Z,10.90
2018-10-16T10:02:22.823Z,9.00
2018-10-16T10:04:51.282Z,8.70
2018-10-16T10:07:19.733Z,9.93
2018-10-16T10:09:48.189Z,8.90
2018-10-16T10:12:16.994Z,9.90
2018-10-16T10:14:45.810Z,9.90
2018-10-16T10:17:14.287Z,9.00
2018-10-16T10:19:42.769Z,9.03
2018-10-16T10:22:11.251Z,8.93
2018-10-16T10:24:39.737Z,8.57
2018-10-16T10:27:08.264Z,9.40
2018-10-16T10:29:36.712Z,8.67
2018-10-16T10:32:05.912Z,8.20
2018-10-16T10:34:34.367Z,7.97
2018-10-16T10:37:02.918Z,7.30
2018-10-16T10:39:31.553Z,8.10
2018-10-16T10:42:00.039Z,8.10
2018-10-16T10:44:28.527Z,7.87
2018-10-16T10:46:57.085Z,8.27
2018-10-16T10:49:25.618Z,8.90
2018-10-16T10:51:54.071Z,8.10
2018-10-16T10:54:22.607Z,7.90
2018-10-16T10:56:51.171Z,7.50
2018-10-16T10:59:19.593Z,7.73
2018-10-16T11:01:48.064Z,7.93
2018-10-16T11:04:16.447Z,8.30
2018-10-16T11:06:45.115Z,7.60
2018-10-16T11:09:14.091Z,8.07
2018-10-16T11:11:46.632Z,7.43
2018-10-16T11:14:15.072Z,7.13
2018-10-16T11:16:43.522Z,7.53
2018-10-16T11:19:12.155Z,7.40
2018-10-16T11:21:40.644Z,7.47
2018-10-16T11:24:09.217Z,6.60
2018-10-16T11:26:38.002Z,7.57
2018-10-16T11:29:06.456Z,7.03
2018-10-16T11:31:34.913Z,7.13
2018-10-16T11:34:03.390Z,6.70
2018-10-16T11:36:32.620Z,8.33
2018-10-16T11:39:01.467Z,6.97
2018-10-16T11:41:30.575Z,7.10
2018-10-16T11:43:59.007Z,7.40
2018-10-16T11:46:27.489Z,7.57
2018-10-16T11:48:55.972Z,7.37
2018-10-16T11:51:25.146Z,7.83
2018-10-16T11:53:53.567Z,8.73
2018-10-16T11:56:22.909Z,8.10
2018-10-16T11:58:52.006Z,9.10
2018-10-16T12:01:20.760Z,7.40
2018-10-16T12:03:49.179Z,7.80
2018-10-16T12:06:17.792Z,6.70
2018-10-16T12:08:46.207Z,7.00
2018-10-16T12:11:14.732Z,8.40
2018-10-16T12:13:43.169Z,7.40
2018-10-16T12:16:11.666Z,6.93
2018-10-16T12:19:47.043Z,6.63
2018-10-16T12:22:15.472Z,7.13
2018-10-16T12:24:43.994Z,7.87
2018-10-16T12:27:12.551Z,7.63
2018-10-16T12:29:40.955Z,7.60
2018-10-16T12:32:09.447Z,7.40
2018-10-16T12:34:37.865Z,7.63
2018-10-16T12:37:06.604Z,6.90
2018-10-16T12:39:35.200Z,6.93
2018-10-16T12:42:03.726Z,6.90
2018-10-16T12:44:32.215Z,6.63
2018-10-16T12:47:00.671Z,7.00
2018-10-16T12:49:29.217Z,7.60
2018-10-16T12:51:57.640Z,7.23
2018-10-16T12:54:26.123Z,7.00
2018-10-16T12:56:54.648Z,7.23
2018-10-16T12:59:23.034Z,6.53
2018-10-16T13:01:51.520Z,7.00
2018-10-16T13:04:20.025Z,7.17
2018-10-16T13:06:48.448Z,6.10
2018-10-16T13:09:16.908Z,6.67
2018-10-16T13:11:45.334Z,7.37
2018-10-16T13:14:13.859Z,7.27
2018-10-16T13:16:42.246Z,6.63
2018-10-16T13:19:10.724Z,6.40
2018-10-16T13:21:39.198Z,6.40
2018-10-16T13:24:07.867Z,8.03
2018-10-16T13:26:36.214Z,7.43
2018-10-16T13:29:04.736Z,7.37
2018-10-16T13:31:33.094Z,7.37
2018-10-16T13:34:01.595Z,6.80
2018-10-16T13:36:30.034Z,6.90
2018-10-16T13:38:58.475Z,7.13
2018-10-16T13:41:27.001Z,6.47
2018-10-16T13:43:55.494Z,6.70
2018-10-16T13:46:23.877Z,8.30
2018-10-16T13:48:52.356Z,6.97
2018-10-16T13:51:20.779Z,6.70
2018-10-16T13:53:49.214Z,6.87
2018-10-16T13:56:17.717Z,6.47
2018-10-16T13:58:46.188Z,6.30
2018-10-16T14:01:15.113Z,6.10
2018-10-16T14:03:43.576Z,6.47
2018-10-16T14:06:12.011Z,6.37
2018-10-16T14:08:40.485Z,7.00
2018-10-16T14:11:08.984Z,6.67
2018-10-16T14:13:37.490Z,6.60
2018-10-16T14:16:06.292Z,7.27
2018-10-16T14:18:34.765Z,6.80
2018-10-16T14:21:03.233Z,6.80
2018-10-16T14:23:31.714Z,6.97
2018-10-16T14:26:00.249Z,6.67
2018-10-16T14:28:28.696Z,6.80
2018-10-16T14:30:57.376Z,6.20
2018-10-16T14:33:26.365Z,5.73
2018-10-16T14:35:54.898Z,7.03
2018-10-16T14:38:23.534Z,6.90
2018-10-16T14:40:52.009Z,7.10
2018-10-16T14:43:20.486Z,6.00
2018-10-16T14:45:48.905Z,6.30
2018-10-16T14:48:17.413Z,6.33
2018-10-16T14:50:45.867Z,6.10
2018-10-16T14:53:14.330Z,6.80
2018-10-16T14:55:43.318Z,6.60
2018-10-16T14:58:11.838Z,6.67
2018-10-16T15:00:40.277Z,7.10
2018-10-16T15:03:08.705Z,6.53
2018-10-16T15:05:37.146Z,7.00
2018-10-16T15:08:05.675Z,7.13
2018-10-16T15:10:34.254Z,6.60
2018-10-16T15:13:02.714Z,7.07
2018-10-16T15:15:31.150Z,6.50
2018-10-16T15:17:59.658Z,6.40
2018-10-16T15:20:28.124Z,6.60
2018-10-16T15:22:56.593Z,6.63
2018-10-16T15:25:25.078Z,6.43
2018-10-16T15:27:53.595Z,7.27
2018-10-16T15:30:22.080Z,7.13
2018-10-16T15:32:50.620Z,7.00
2018-10-16T15:35:19.061Z,6.23
2018-10-16T15:37:47.531Z,7.07
2018-10-16T15:40:16.009Z,7.90
2018-10-16T15:42:44.523Z,7.83
2018-10-16T15:45:13.349Z,7.50
2018-10-16T15:47:42.412Z,7.97
2018-10-16T15:50:11.666Z,7.80
2018-10-16T15:52:40.292Z,7.33
2018-10-16T15:55:09.885Z,7.70
2018-10-16T15:57:38.315Z,8.70
2018-10-16T16:00:13.328Z,8.77
2018-10-16T16:02:41.830Z,8.50
2018-10-16T16:05:10.342Z,9.33
2018-10-16T16:07:38.797Z,8.80
2018-10-16T16:10:09.135Z,8.10
2018-10-16T16:12:38.052Z,7.90
2018-10-16T16:15:07.813Z,9.50
2018-10-16T16:17:36.237Z,7.30
2018-10-16T16:20:05.344Z,8.03
2018-10-16T16:22:33.757Z,7.70
2018-10-16T16:25:02.237Z,7.77
2018-10-16T16:27:30.765Z,8.23
2018-10-16T16:29:59.254Z,8.70
2018-10-16T16:32:27.663Z,8.20
2018-10-16T16:34:56.191Z,7.87
2018-10-16T16:37:24.633Z,9.00
2018-10-16T16:39:53.125Z,9.73
2018-10-16T16:42:21.542Z,8.67
2018-10-16T16:44:49.958Z,8.60
2018-10-16T16:47:18.387Z,7.73
2018-10-16T16:49:47.013Z,9.20
2018-10-16T16:52:15.495Z,9.30
2018-10-16T16:54:44.277Z,8.70
2018-10-16T16:57:12.679Z,9.80
2018-10-16T16:59:41.151Z,9.73
2018-10-16T17:02:09.591Z,10.90
2018-10-16T17:04:38.033Z,8.80
2018-10-16T17:07:06.511Z,8.80
2018-10-16T17:09:35.121Z,9.93
2018-10-16T17:12:03.674Z,10.30
2018-10-16T17:14:32.127Z,10.93
2018-10-16T17:17:00.576Z,9.77
2018-10-16T17:19:29.094Z,9.00
2018-10-16T17:21:57.576Z,8.70
2018-10-16T17:24:25.982Z,8.83
2018-10-16T17:26:54.412Z,8.70
2018-10-16T17:29:22.853Z,9.57
2018-10-16T17:31:51.328Z,10.40
2018-10-16T17:34:19.697Z,9.50
2018-10-16T17:36:48.175Z,15.50
2018-10-16T17:39:16.632Z,12.27
2018-10-16T17:41:45.121Z,10.60
2018-10-16T17:44:13.641Z,10.90
2018-10-16T17:46:42.105Z,11.20
2018-10-16T17:49:10.600Z,10.87
2018-10-16T17:51:39.068Z,11.93
2018-10-16T17:54:07.519Z,12.67
2018-10-16T17:56:35.986Z,10.80
2018-10-16T17:59:04.586Z,10.97
2018-10-16T18:01:33.068Z,10.27
2018-10-16T18:04:01.488Z,11.40
2018-10-16T18:06:30.024Z,10.37
2018-10-16T18:08:58.472Z,11.50
2018-10-16T18:11:26.904Z,12.00
2018-10-16T18:13:55.325Z,11.07
2018-10-16T18:16:23.814Z,11.00
2018-10-16T18:18:52.337Z,16.13
2018-10-16T18:21:20.736Z,11.23
2018-10-16T18:23:49.328Z,11.90
2018-10-16T18:26:17.854Z,12.10
2018-10-16T18:28:46.303Z,11.43
2018-10-16T18:31:15.653Z,10.43
2018-10-16T18:33:44.104Z,10.30
2018-10-16T18:36:12.516Z,9.90
2018-10-16T18:38:40.946Z,10.07
2018-10-16T18:41:09.387Z,9.70
2018-10-16T18:43:37.812Z,10.17
2018-10-16T18:46:06.484Z,10.10
2018-10-16T18:48:35.029Z,11.97
2018-10-16T18:51:03.578Z,11.53
2018-10-16T18:53:32.035Z,11.20
2018-10-16T18:56:00.474Z,10.97
2018-10-16T18:58:28.889Z,10.40
2018-10-16T19:00:57.736Z,10.20
2018-10-16T19:03:26.181Z,10.57
2018-10-16T19:05:54.606Z,10.40
2018-10-16T19:08:23.109Z,9.00
2018-10-16T19:10:51.577Z,10.33
2018-10-16T19:13:20.066Z,10.10
2018-10-16T19:15:48.524Z,11.10
2018-10-16T19:18:16.956Z,11.33
2018-10-16T19:20:45.379Z,10.50
2018-10-16T19:23:13.841Z,11.50
2018-10-16T19:25:42.268Z,12.70
2018-10-16T19:28:10.801Z,11.10
2018-10-16T19:30:39.516Z,10.87
2018-10-16T19:33:07.956Z,11.67
2018-10-16T19:35:36.364Z,10.30
2018-10-16T19:38:04.947Z,10.17
2018-10-16T19:40:33.484Z,9.77
2018-10-16T19:43:01.988Z,11.23
2018-10-16T19:45:30.493Z,12.10
2018-10-16T19:47:58.885Z,10.87
2018-10-16T19:50:27.683Z,11.10
2018-10-16T19:52:57.130Z,11.47
2018-10-16T19:55:25.611Z,11.60
2018-10-16T19:57:54.066Z,11.30
2018-10-16T20:00:22.554Z,11.90
2018-10-16T20:02:51.017Z,10.43
2018-10-16T20:05:19.394Z,10.43
2018-10-16T20:07:47.865Z,11.10
2018-10-16T20:10:16.269Z,10.70
2018-10-16T20:12:44.709Z,10.53
2018-10-16T20:15:13.589Z,10.87
2018-10-16T20:17:42.043Z,10.60
2018-10-16T20:20:11.672Z,10.13
2018-10-16T20:22:40.178Z,10.73
2018-10-16T20:25:09.502Z,11.03
2018-10-16T20:27:37.935Z,10.47
2018-10-16T20:30:07.976Z,10.97
2018-10-16T20:32:36.494Z,10.47
2018-10-16T20:35:05.186Z,10.50
2018-10-16T20:37:33.983Z,10.40
2018-10-16T20:40:02.430Z,11.83
2018-10-16T20:42:30.799Z,11.27
2018-10-16T20:44:59.232Z,11.63
2018-10-16T20:47:27.663Z,11.17
2018-10-16T20:49:56.102Z,12.70
2018-10-16T20:52:24.552Z,11.00
2018-10-16T20:54:53.032Z,10.63
2018-10-16T20:57:21.499Z,12.30
2018-10-16T20:59:50.072Z,10.40
2018-10-16T21:02:18.862Z,11.27
2018-10-16T21:04:47.420Z,11.30
2018-10-16T21:07:16.411Z,11.37
2018-10-16T21:09:44.819Z,10.43
2018-10-16T21:12:13.271Z,10.67
2018-10-16T21:14:41.751Z,10.40
2018-10-16T21:17:10.210Z,10.90
2018-10-16T21:19:38.677Z,10.40
2018-10-16T21:22:07.128Z,11.13
2018-10-16T21:24:35.540Z,10.20
2018-10-16T21:27:12.075Z,10.57
2018-10-16T21:29:40.516Z,11.33
2018-10-16T21:32:09.771Z,10.23
2018-10-16T21:34:38.270Z,10.70
2018-10-16T21:37:06.790Z,10.23
2018-10-16T21:39:35.225Z,9.73
2018-10-16T21:42:03.769Z,10.73
2018-10-16T21:44:32.231Z,9.67
2018-10-16T21:47:01.729Z,10.13
2018-10-16T21:49:30.106Z,10.07
2018-10-16T21:51:58.499Z,10.30
2018-10-16T21:54:26.929Z,10.70
2018-10-16T21:56:55.314Z,10.80
2018-10-16T21:59:23.895Z,11.37
2018-10-16T22:01:57.488Z,10.33
2018-10-16T22:04:25.946Z,10.77
2018-10-16T22:06:54.428Z,10.23
2018-10-16T22:09:22.897Z,10.10
2018-10-16T22:11:51.412Z,10.30
2018-10-16T22:14:19.830Z,10.00
2018-10-16T22:16:49.126Z,9.80
2018-10-16T22:19:17.599Z,10.77
2018-10-16T22:21:46.066Z,10.77
2018-10-16T22:24:14.515Z,9.57
2018-10-16T22:26:42.994Z,10.20
2018-10-16T22:29:11.462Z,11.50
2018-10-16T22:31:39.905Z,9.33
2018-10-16T22:34:08.337Z,10.37
2018-10-16T22:36:36.721Z,9.67
2018-10-16T22:39:08.420Z,10.77
2018-10-16T22:41:36.996Z,10.73
2018-10-16T22:44:05.772Z,9.80
2018-10-16T22:46:34.333Z,10.30
2018-10-16T22:49:02.767Z,9.80
2018-10-16T22:51:31.245Z,9.73
2018-10-16T22:53:59.635Z,10.67
2018-10-16T22:56:28.039Z,10.40
2018-10-16T22:58:56.497Z,10.50
2018-10-16T23:01:24.940Z,9.57
2018-10-16T23:03:53.400Z,10.80
2018-10-16T23:06:21.851Z,10.80
2018-10-16T23:08:50.271Z,9.47
2018-10-16T23:11:18.787Z,10.20
2018-10-16T23:13:47.096Z,10.13
2018-10-16T23:16:15.513Z,10.63
2018-10-16T23:18:43.930Z,10.90
2018-10-16T23:21:12.324Z,10.47
2018-10-16T23:23:40.708Z,10.20
2018-10-16T23:26:09.140Z,10.93
2018-10-16T23:28:37.975Z,11.13
2018-10-16T23:31:06.614Z,11.00
2018-10-16T23:33:35.069Z,10.63
2018-10-16T23:36:03.504Z,10.60
2018-10-16T23:38:31.894Z,10.70
2018-10-16T23:41:00.307Z,9.80
2018-10-16T23:43:28.678Z,11.07
2018-10-16T23:45:57.100Z,9.80
2018-10-16T23:48:25.565Z,10.00
2018-10-16T23:50:53.969Z,10.40
2018-10-16T23:53:22.477Z,10.17
2018-10-16T23:55:50.872Z,10.33
2018-10-16T23:58:19.307Z,10.63
